createdAt,value
2023-05-11T00:01:46.937Z,58.73
2023-05-11T00:04:14.719Z,59.04
2023-05-11T00:06:42.266Z,58.97
2023-05-11T00:09:11.026Z,59.36
2023-05-11T00:11:38.670Z,59.53
2023-05-11T00:14:06.413Z,59.93
2023-05-11T00:16:33.999Z,59.88
2023-05-11T00:19:01.671Z,60.04
2023-05-11T00:21:29.312Z,60.01
2023-05-11T00:23:57.063Z,61.35
2023-05-11T00:26:26.100Z,60.88
2023-05-11T00:28:53.677Z,61.20
2023-05-11T00:31:21.490Z,62.02
2023-05-11T00:33:49.055Z,62.78
2023-05-11T00:36:16.541Z,62.98
2023-05-11T00:38:44.318Z,62.81
2023-05-11T00:41:11.887Z,62.88
2023-05-11T00:43:40.089Z,62.98
2023-05-11T00:46:07.805Z,63.91
2023-05-11T00:48:36.154Z,63.85
2023-05-11T00:51:04.147Z,63.97
2023-05-11T00:53:31.608Z,65.31
2023-05-11T00:55:59.340Z,64.35
2023-05-11T00:58:27.240Z,64.61
2023-05-11T01:00:54.847Z,64.57
2023-05-11T01:03:23.111Z,64.62
2023-05-11T01:06:14.462Z,64.49
2023-05-11T01:09:06.082Z,64.78
2023-05-11T01:11:45.678Z,64.84
2023-05-11T01:14:30.609Z,64.85
2023-05-11T01:17:04.137Z,64.72
2023-05-11T01:19:43.279Z,64.52
2023-05-11T01:22:55.026Z,64.54
2023-05-11T01:25:54.409Z,64.63
2023-05-11T01:28:44.165Z,65.48
2023-05-11T01:31:13.696Z,65.32
2023-05-11T01:33:49.435Z,65.28
2023-05-11T01:36:19.630Z,65.13
2023-05-11T01:38:50.655Z,65.14
2023-05-11T01:41:21.921Z,65.03
2023-05-11T01:43:57.714Z,65.26
2023-05-11T01:46:27.288Z,65.29
2023-05-11T01:48:58.894Z,65.50
2023-05-11T01:51:30.830Z,65.89
2023-05-11T01:53:59.715Z,66.17
2023-05-11T01:56:28.990Z,65.78
2023-05-11T01:58:59.177Z,65.88
2023-05-11T02:01:28.937Z,65.94
2023-05-11T02:03:59.280Z,65.94
2023-05-11T02:06:29.000Z,65.99
2023-05-11T02:09:00.820Z,66.26
2023-05-11T02:11:30.911Z,66.31
2023-05-11T02:14:00.597Z,66.56
2023-05-11T02:16:31.515Z,66.59
2023-05-11T02:19:00.256Z,66.58
2023-05-11T02:21:31.228Z,66.59
2023-05-11T02:24:02.718Z,67.19
2023-05-11T02:26:30.495Z,67.11
2023-05-11T02:28:58.068Z,66.84
2023-05-11T02:31:32.605Z,67.00
2023-05-11T02:34:07.924Z,66.93
2023-05-11T02:36:38.078Z,66.73
2023-05-11T02:39:10.209Z,67.14
2023-05-11T02:41:42.439Z,67.16
2023-05-11T02:44:14.046Z,66.94
2023-05-11T02:46:44.708Z,67.12
2023-05-11T02:49:15.190Z,67.53
2023-05-11T02:51:45.558Z,67.07
2023-05-11T02:54:16.557Z,67.24
2023-05-11T02:56:47.072Z,67.20
2023-05-11T02:59:15.415Z,67.60
2023-05-11T03:01:45.448Z,67.61
2023-05-11T03:04:18.909Z,67.72
2023-05-11T03:06:46.801Z,67.73
2023-05-11T03:09:14.661Z,67.75
2023-05-11T03:11:45.512Z,67.70
2023-05-11T03:14:14.130Z,67.81
2023-05-11T03:16:43.496Z,67.90
2023-05-11T03:19:13.161Z,68.10
2023-05-11T03:21:41.571Z,68.09
2023-05-11T03:24:10.807Z,68.00
2023-05-11T03:26:40.493Z,68.03
2023-05-11T03:29:10.110Z,68.27
2023-05-11T03:31:39.882Z,68.49
2023-05-11T03:34:07.937Z,68.96
2023-05-11T03:36:39.675Z,68.46
2023-05-11T03:39:08.952Z,67.15
2023-05-11T03:41:40.659Z,65.85
2023-05-11T03:44:11.233Z,64.12
2023-05-11T03:46:41.787Z,61.56
2023-05-11T03:49:12.857Z,60.92
2023-05-11T03:51:40.905Z,60.53
2023-05-11T03:54:08.883Z,58.10
2023-05-11T03:56:38.672Z,56.48
2023-05-11T03:59:07.623Z,53.62
2023-05-11T04:01:36.316Z,51.89
2023-05-11T04:04:04.578Z,50.39
2023-05-11T04:06:32.427Z,49.07
2023-05-11T04:09:01.949Z,47.76
2023-05-11T04:11:30.111Z,43.72
2023-05-11T04:13:57.670Z,43.88
2023-05-11T04:16:25.533Z,42.05
2023-05-11T04:18:56.604Z,41.42
2023-05-11T04:21:26.262Z,39.46
2023-05-11T04:23:54.186Z,39.75
2023-05-11T04:26:22.186Z,40.49
2023-05-11T04:28:50.049Z,41.29
2023-05-11T04:31:17.785Z,42.46
2023-05-11T04:33:46.540Z,44.04
2023-05-11T04:36:14.946Z,43.94
2023-05-11T04:38:42.717Z,45.22
2023-05-11T04:41:11.174Z,47.21
2023-05-11T04:43:40.555Z,46.67
2023-05-11T04:46:09.721Z,44.98
2023-05-11T04:48:41.307Z,43.11
2023-05-11T04:51:09.418Z,41.10
2023-05-11T04:53:39.027Z,40.38
2023-05-11T04:56:07.010Z,39.65
2023-05-11T04:58:34.810Z,40.24
2023-05-11T05:01:02.579Z,39.23
2023-05-11T05:03:30.420Z,38.57
2023-05-11T05:05:59.214Z,37.43
2023-05-11T05:08:27.041Z,37.82
2023-05-11T05:10:54.861Z,38.26
2023-05-11T05:13:23.768Z,37.37
2023-05-11T05:19:15.039Z,36.46
2023-05-11T05:28:42.576Z,36.49
2023-05-11T05:31:10.753Z,35.79
2023-05-11T05:33:38.559Z,35.37
2023-05-11T05:36:09.173Z,35.20
2023-05-11T05:38:37.704Z,35.33
2023-05-11T05:41:06.133Z,35.02
2023-05-11T05:43:35.997Z,34.32
2023-05-11T05:46:06.032Z,34.76
2023-05-11T05:48:33.933Z,34.53
2023-05-11T05:51:04.396Z,34.55
2023-05-11T05:53:31.866Z,35.55
2023-05-11T05:55:59.227Z,34.89
2023-05-11T05:58:27.406Z,35.09
2023-05-11T06:00:55.067Z,34.75
2023-05-11T06:03:23.005Z,33.83
2023-05-11T06:05:50.716Z,34.12
2023-05-11T06:08:19.368Z,33.24
2023-05-11T06:10:48.205Z,33.64
2023-05-11T06:13:16.707Z,33.03
2023-05-11T06:15:45.289Z,33.42
2023-05-11T06:18:17.397Z,32.91
2023-05-11T06:20:55.246Z,32.94
2023-05-11T06:23:29.456Z,32.72
2023-05-11T06:25:58.393Z,32.88
2023-05-11T06:28:27.160Z,32.85
2023-05-11T06:30:59.914Z,32.59
2023-05-11T06:33:34.729Z,32.79
2023-05-11T06:36:07.406Z,31.92
2023-05-11T06:38:39.723Z,31.18
2023-05-11T06:41:10.267Z,30.75
2023-05-11T06:43:38.497Z,30.24
2023-05-11T06:46:08.348Z,30.01
2023-05-11T06:48:36.003Z,29.78
2023-05-11T06:51:04.316Z,29.65
2023-05-11T06:53:32.007Z,29.33
2023-05-11T06:56:01.985Z,28.80
2023-05-11T06:58:29.788Z,29.57
2023-05-11T07:00:57.873Z,29.92
2023-05-11T07:03:33.497Z,30.45
2023-05-11T07:06:06.449Z,30.47
2023-05-11T07:08:34.164Z,31.17
2023-05-11T07:11:02.060Z,31.94
2023-05-11T07:13:30.674Z,31.52
2023-05-11T07:16:00.001Z,32.02
2023-05-11T07:18:28.754Z,30.75
2023-05-11T07:20:58.169Z,31.39
2023-05-11T07:23:26.045Z,31.69
2023-05-11T07:25:55.255Z,31.52
2023-05-11T07:28:22.910Z,31.81
2023-05-11T07:30:51.388Z,31.01
2023-05-11T07:33:20.885Z,31.39
2023-05-11T07:35:48.699Z,31.89
2023-05-11T07:38:17.773Z,32.42
2023-05-11T07:40:46.239Z,32.21
2023-05-11T07:43:14.119Z,32.31
2023-05-11T07:45:42.216Z,32.10
2023-05-11T07:48:10.097Z,31.45
2023-05-11T07:50:38.041Z,32.02
2023-05-11T07:53:05.511Z,32.11
2023-05-11T07:55:33.363Z,31.74
2023-05-11T07:58:00.905Z,32.16
2023-05-11T08:00:29.398Z,32.59
2023-05-11T08:02:57.255Z,32.68
2023-05-11T08:05:25.649Z,32.66
2023-05-11T08:07:53.392Z,32.37
2023-05-11T08:10:21.448Z,32.83
2023-05-11T08:12:49.176Z,33.18
2023-05-11T08:15:17.489Z,33.17
2023-05-11T08:17:46.162Z,32.73
2023-05-11T08:20:15.268Z,32.72
2023-05-11T08:22:43.896Z,33.31
2023-05-11T08:25:13.161Z,32.61
2023-05-11T08:27:41.799Z,32.67
2023-05-11T08:30:12.121Z,33.12
2023-05-11T08:32:57.066Z,32.86
2023-05-11T08:35:09.808Z,33.21
2023-05-11T08:37:37.629Z,32.80
2023-05-11T08:40:06.584Z,32.59
2023-05-11T08:42:35.280Z,31.19
2023-05-11T08:45:05.135Z,32.09
2023-05-11T08:47:33.782Z,31.84
2023-05-11T08:50:01.628Z,30.64
2023-05-11T08:52:30.972Z,29.31
2023-05-11T08:55:01.393Z,28.81
2023-05-11T08:57:32.072Z,28.79
2023-05-11T09:00:04.681Z,28.58
2023-05-11T09:02:33.465Z,27.73
2023-05-11T09:05:04.106Z,27.20
2023-05-11T09:07:36.207Z,27.75
2023-05-11T09:10:05.367Z,28.62
2023-05-11T09:12:33.416Z,28.82
2023-05-11T09:15:02.509Z,29.35
2023-05-11T09:17:30.436Z,29.45
2023-05-11T09:20:07.865Z,29.82
2023-05-11T09:22:47.203Z,30.36
2023-05-11T09:25:19.198Z,30.98
2023-05-11T09:27:56.783Z,31.25
2023-05-11T09:30:26.200Z,32.15
2023-05-11T09:33:00.970Z,32.78
2023-05-11T09:35:35.946Z,32.86
2023-05-11T09:38:09.627Z,32.92
2023-05-11T09:40:43.361Z,32.87
2023-05-11T09:43:27.846Z,32.65
2023-05-11T09:46:00.208Z,32.96
2023-05-11T09:48:35.630Z,32.16
2023-05-11T09:51:28.676Z,32.11
2023-05-11T09:54:23.558Z,32.10
2023-05-11T09:56:58.892Z,31.75
2023-05-11T09:59:41.259Z,32.21
2023-05-11T10:02:29.198Z,32.12
2023-05-11T10:04:59.920Z,31.73
2023-05-11T10:07:33.050Z,31.89
2023-05-11T10:10:07.873Z,31.17
2023-05-11T10:12:38.818Z,30.36
2023-05-11T10:15:10.010Z,31.08
2023-05-11T10:17:38.148Z,31.62
2023-05-11T10:20:07.668Z,31.81
2023-05-11T10:22:36.615Z,31.72
2023-05-11T10:25:06.284Z,32.45
2023-05-11T10:27:34.298Z,32.93
2023-05-11T10:30:03.610Z,32.91
2023-05-11T10:32:34.319Z,32.78
2023-05-11T10:35:06.010Z,33.63
2023-05-11T10:37:34.888Z,33.37
2023-05-11T10:40:04.311Z,32.45
2023-05-11T10:42:58.176Z,33.53
2023-05-11T10:45:54.197Z,32.71
2023-05-11T10:48:46.601Z,32.48
2023-05-11T10:51:40.230Z,32.43
2023-05-11T10:54:28.445Z,32.62
2023-05-11T10:57:23.097Z,32.44
2023-05-11T11:00:14.965Z,33.06
2023-05-11T11:02:44.719Z,32.59
2023-05-11T11:05:14.545Z,33.38
2023-05-11T11:08:05.284Z,33.55
2023-05-11T11:10:40.411Z,33.00
2023-05-11T11:13:11.087Z,32.50
2023-05-11T11:16:00.514Z,31.41
2023-05-11T11:18:36.702Z,29.51
2023-05-11T11:21:15.693Z,30.11
2023-05-11T11:23:54.339Z,31.12
2023-05-11T11:26:51.332Z,31.68
2023-05-11T11:29:19.526Z,31.36
2023-05-11T11:31:47.356Z,29.90
2023-05-11T11:34:32.903Z,30.32
2023-05-11T11:37:03.145Z,29.73
2023-05-11T11:39:50.304Z,29.14
2023-05-11T11:42:35.174Z,29.96
2023-05-11T11:45:29.971Z,29.28
2023-05-11T11:48:13.716Z,28.79
2023-05-11T11:50:47.442Z,28.64
2023-05-11T11:53:42.078Z,28.95
2023-05-11T11:56:23.586Z,29.44
2023-05-11T11:59:00.890Z,29.26
2023-05-11T12:01:38.343Z,29.68
2023-05-11T12:04:26.748Z,28.69
2023-05-11T12:06:58.999Z,29.04
2023-05-11T12:09:27.132Z,28.81
2023-05-11T12:11:56.965Z,28.49
2023-05-11T12:14:27.743Z,28.60
2023-05-11T12:17:03.804Z,28.21
2023-05-11T12:19:31.520Z,28.20
2023-05-11T12:21:59.972Z,27.27
2023-05-11T12:24:27.783Z,27.50
2023-05-11T12:26:57.307Z,27.47
2023-05-11T12:29:27.073Z,27.64
2023-05-11T12:31:55.791Z,28.10
2023-05-11T12:34:23.325Z,28.73
2023-05-11T12:36:53.655Z,28.94
2023-05-11T12:39:25.875Z,28.65
2023-05-11T12:41:55.834Z,28.62
2023-05-11T12:44:26.295Z,27.85
2023-05-11T12:46:57.386Z,27.92
2023-05-11T12:49:27.315Z,27.94
2023-05-11T12:52:08.358Z,28.05
2023-05-11T12:54:43.044Z,28.10
2023-05-11T13:00:18.568Z,28.71
2023-05-11T13:02:53.086Z,28.20
2023-05-11T13:05:30.601Z,28.84
2023-05-11T13:08:01.435Z,28.79
2023-05-11T13:10:29.230Z,28.80
2023-05-11T13:12:56.982Z,28.51
2023-05-11T13:15:27.864Z,29.07
2023-05-11T13:17:59.354Z,29.80
2023-05-11T13:20:31.254Z,30.25
2023-05-11T13:23:15.203Z,29.57
2023-05-11T13:25:54.624Z,29.44
2023-05-11T13:28:25.895Z,29.19
2023-05-11T13:31:00.536Z,29.18
2023-05-11T13:33:28.346Z,29.29
2023-05-11T13:35:57.907Z,30.08
2023-05-11T13:38:25.842Z,30.47
2023-05-11T13:40:58.581Z,28.98
2023-05-11T13:43:27.528Z,29.62
2023-05-11T13:45:55.489Z,29.38
2023-05-11T13:48:23.956Z,29.21
2023-05-11T13:50:52.150Z,29.58
2023-05-11T13:53:19.928Z,29.64
2023-05-11T13:55:47.821Z,29.43
2023-05-11T13:58:16.097Z,29.88
2023-05-11T14:00:53.344Z,29.73
2023-05-11T14:03:16.776Z,29.92
2023-05-11T14:05:52.704Z,30.34
2023-05-11T14:08:24.366Z,31.30
2023-05-11T14:10:53.270Z,30.86
2023-05-11T14:13:24.972Z,30.40
2023-05-11T14:15:52.670Z,30.43
2023-05-11T14:18:20.545Z,30.84
2023-05-11T14:20:52.078Z,30.67
2023-05-11T14:23:19.893Z,31.48
2023-05-11T14:25:49.371Z,31.12
2023-05-11T14:28:17.308Z,31.08
2023-05-11T14:30:52.340Z,30.63
2023-05-11T14:33:21.029Z,30.83
2023-05-11T14:35:52.426Z,30.10
2023-05-11T14:38:21.241Z,30.59
2023-05-11T14:40:50.471Z,30.08
2023-05-11T14:43:20.118Z,30.65
2023-05-11T14:46:13.439Z,30.39
2023-05-11T14:48:43.551Z,31.01
2023-05-11T14:51:11.309Z,31.63
2023-05-11T14:53:39.020Z,31.07
2023-05-11T14:56:07.366Z,30.59
2023-05-11T14:58:35.383Z,31.00
2023-05-11T15:01:04.480Z,31.01
2023-05-11T15:03:32.111Z,30.75
2023-05-11T15:06:00.728Z,30.46
2023-05-11T15:08:34.620Z,30.94
2023-05-11T15:11:04.293Z,30.32
2023-05-11T15:13:32.047Z,30.95
2023-05-11T15:15:59.774Z,31.17
2023-05-11T15:18:27.737Z,31.48
2023-05-11T15:20:55.613Z,31.39
2023-05-11T15:23:23.750Z,31.95
2023-05-11T15:25:57.873Z,32.33
2023-05-11T15:28:26.012Z,32.50
2023-05-11T15:30:53.845Z,32.09
2023-05-11T15:33:23.501Z,31.97
2023-05-11T15:35:53.787Z,32.00
2023-05-11T15:38:26.610Z,32.19
2023-05-11T15:41:05.868Z,31.98
2023-05-11T15:43:33.884Z,32.19
2023-05-11T15:46:03.084Z,32.50
2023-05-11T15:48:31.290Z,32.50
2023-05-11T15:51:02.367Z,32.64
2023-05-11T15:53:32.717Z,32.88
2023-05-11T15:56:00.449Z,33.16
2023-05-11T15:58:28.970Z,33.82
2023-05-11T16:00:58.736Z,34.04
2023-05-11T16:03:34.211Z,34.16
2023-05-11T16:06:06.710Z,34.03
2023-05-11T16:08:34.941Z,33.91
2023-05-11T16:11:02.893Z,34.41
2023-05-11T16:13:30.714Z,33.98
2023-05-11T16:15:59.152Z,33.72
2023-05-11T16:18:30.065Z,33.64
2023-05-11T16:20:57.652Z,34.07
2023-05-11T16:23:25.348Z,33.78
2023-05-11T16:25:53.353Z,33.84
2023-05-11T16:28:20.756Z,33.88
2023-05-11T16:30:48.452Z,33.88
2023-05-11T16:33:16.774Z,33.93
2023-05-11T16:35:44.332Z,33.68
2023-05-11T16:38:20.947Z,34.17
2023-05-11T16:40:51.413Z,33.94
2023-05-11T16:43:19.035Z,34.06
2023-05-11T16:45:47.405Z,34.02
2023-05-11T16:48:15.109Z,34.28
2023-05-11T16:50:42.701Z,34.45
2023-05-11T16:53:17.093Z,34.53
2023-05-11T16:55:45.032Z,34.71
2023-05-11T16:58:12.825Z,34.43
2023-05-11T17:00:44.850Z,34.64
2023-05-11T17:03:12.643Z,34.86
2023-05-11T17:05:40.929Z,34.96
2023-05-11T17:08:08.889Z,35.19
2023-05-11T17:10:36.712Z,35.40
2023-05-11T17:13:04.286Z,35.51
2023-05-11T17:15:35.426Z,35.75
2023-05-11T17:18:04.453Z,35.94
2023-05-11T17:20:31.973Z,36.26
2023-05-11T17:22:59.422Z,36.23
2023-05-11T17:25:28.798Z,36.54
2023-05-11T17:27:56.273Z,36.84
2023-05-11T17:30:30.114Z,36.80
2023-05-11T17:32:56.077Z,37.09
2023-05-11T17:35:26.605Z,37.00
2023-05-11T17:37:54.099Z,37.25
2023-05-11T17:40:21.795Z,37.47
2023-05-11T17:42:50.702Z,37.77
2023-05-11T17:45:18.931Z,37.88
2023-05-11T17:47:55.043Z,37.75
2023-05-11T17:50:24.001Z,37.92
2023-05-11T17:52:51.759Z,38.10
2023-05-11T17:55:19.761Z,38.33
2023-05-11T17:57:48.171Z,38.27
2023-05-11T18:00:16.645Z,38.66
2023-05-11T18:02:49.610Z,38.77
2023-05-11T18:08:35.991Z,38.99
2023-05-11T18:11:04.131Z,39.26
2023-05-11T18:13:31.747Z,39.44
2023-05-11T18:15:59.681Z,39.32
2023-05-11T18:18:27.776Z,39.70
2023-05-11T18:21:00.413Z,40.04
2023-05-11T18:23:40.495Z,39.95
2023-05-11T18:26:21.804Z,40.34
2023-05-11T18:28:49.390Z,40.28
2023-05-11T18:31:18.753Z,40.38
2023-05-11T18:33:51.856Z,40.34
2023-05-11T18:36:21.929Z,40.37
2023-05-11T18:38:49.617Z,40.52
2023-05-11T18:41:17.554Z,40.68
2023-05-11T18:43:45.218Z,41.41
2023-05-11T18:46:13.090Z,41.23
2023-05-11T18:48:40.889Z,41.66
2023-05-11T18:51:09.112Z,41.62
2023-05-11T18:53:36.989Z,41.58
2023-05-11T18:56:05.123Z,41.51
2023-05-11T18:58:35.044Z,41.50
2023-05-11T19:01:03.407Z,41.50
2023-05-11T19:03:34.089Z,41.88
2023-05-11T19:06:01.695Z,42.09
2023-05-11T19:08:29.576Z,42.45
2023-05-11T19:11:06.966Z,42.66
2023-05-11T19:13:35.353Z,42.58
2023-05-11T19:16:04.351Z,42.57
2023-05-11T19:18:34.427Z,42.89
2023-05-11T19:21:04.613Z,43.11
2023-05-11T19:23:33.372Z,43.02
2023-05-11T19:26:01.207Z,43.30
2023-05-11T19:28:29.100Z,43.31
2023-05-11T19:31:04.229Z,43.40
2023-05-11T19:33:32.335Z,43.32
2023-05-11T19:36:00.572Z,43.49
2023-05-11T19:38:30.553Z,43.35
2023-05-11T19:40:58.888Z,43.28
2023-05-11T19:43:27.559Z,43.52
2023-05-11T19:45:55.579Z,43.73
2023-05-11T19:48:23.550Z,43.67
2023-05-11T19:50:51.413Z,43.49
2023-05-11T19:53:19.346Z,43.35
2023-05-11T19:55:48.612Z,43.09
2023-05-11T19:58:18.203Z,42.91
2023-05-11T20:00:46.593Z,42.80
2023-05-11T20:03:15.304Z,42.64
2023-05-11T20:05:43.698Z,42.77
2023-05-11T20:08:12.544Z,42.42
2023-05-11T20:10:40.185Z,41.95
2023-05-11T20:13:08.026Z,42.25
2023-05-11T20:15:37.592Z,42.00
2023-05-11T20:18:07.930Z,42.07
2023-05-11T20:20:35.901Z,42.12
2023-05-11T20:23:04.365Z,42.12
2023-05-11T20:25:33.662Z,42.15
2023-05-11T20:28:01.269Z,42.15
2023-05-11T20:30:29.014Z,42.16
2023-05-11T20:35:26.346Z,42.44
2023-05-11T20:37:55.398Z,42.46
2023-05-11T20:40:26.417Z,42.63
2023-05-11T20:43:04.825Z,42.56
2023-05-11T20:45:32.596Z,42.53
2023-05-11T20:48:01.072Z,42.31
2023-05-11T20:50:29.607Z,42.39
2023-05-11T20:52:58.024Z,42.38
2023-05-11T20:55:29.047Z,42.51
2023-05-11T20:57:58.199Z,42.43
2023-05-11T21:00:26.128Z,42.52
2023-05-11T21:02:53.733Z,42.46
2023-05-11T21:05:24.152Z,42.60
2023-05-11T21:07:51.849Z,42.52
2023-05-11T21:10:21.456Z,42.74
2023-05-11T21:12:49.711Z,42.73
2023-05-11T21:15:17.549Z,43.00
2023-05-11T21:17:45.695Z,43.17
2023-05-11T21:20:13.677Z,43.33
2023-05-11T21:22:41.140Z,43.28
2023-05-11T21:25:08.955Z,43.56
2023-05-11T21:27:36.348Z,43.65
2023-05-11T21:30:05.106Z,44.04
2023-05-11T21:32:32.862Z,44.08
2023-05-11T21:35:00.742Z,44.18
2023-05-11T21:37:31.450Z,44.34
2023-05-11T21:40:00.054Z,44.05
2023-05-11T21:42:30.285Z,44.06
2023-05-11T21:44:58.316Z,44.09
2023-05-11T21:47:26.048Z,44.17
2023-05-11T21:49:53.771Z,44.26
2023-05-11T21:52:21.720Z,44.35
2023-05-11T21:54:49.575Z,44.41
2023-05-11T21:57:17.253Z,44.52
2023-05-11T21:59:45.223Z,44.55
2023-05-11T22:02:13.005Z,44.64
2023-05-11T22:04:41.671Z,44.38
2023-05-11T22:07:09.459Z,44.35
2023-05-11T22:09:37.218Z,44.28
2023-05-11T22:12:05.725Z,44.40
2023-05-11T22:14:33.871Z,44.47
2023-05-11T22:17:01.528Z,44.61
2023-05-11T22:19:29.529Z,44.77
2023-05-11T22:21:57.355Z,44.71
2023-05-11T22:24:26.575Z,44.66
2023-05-11T22:26:55.563Z,44.72
2023-05-11T22:29:23.266Z,44.91
2023-05-11T22:31:50.983Z,44.98
2023-05-11T22:34:21.228Z,45.27
2023-05-11T22:36:48.935Z,45.32
2023-05-11T22:39:17.168Z,45.39
2023-05-11T22:41:45.020Z,45.65
2023-05-11T22:44:13.201Z,45.61
2023-05-11T22:46:41.012Z,45.89
2023-05-11T22:49:09.347Z,46.00
2023-05-11T22:51:37.423Z,46.07
2023-05-11T22:54:05.551Z,46.29
2023-05-11T22:56:34.151Z,46.52
2023-05-11T22:59:01.770Z,46.51
2023-05-11T23:01:29.350Z,46.74
2023-05-11T23:03:58.823Z,46.49
2023-05-11T23:06:29.185Z,46.59
2023-05-11T23:08:58.611Z,46.59
2023-05-11T23:11:26.298Z,46.61
2023-05-11T23:13:53.950Z,46.97
2023-05-11T23:16:22.761Z,46.86
2023-05-11T23:18:50.648Z,47.19
2023-05-11T23:21:18.193Z,47.24
2023-05-11T23:23:45.768Z,47.09
2023-05-11T23:26:13.556Z,47.16
2023-05-11T23:28:41.094Z,47.30
2023-05-11T23:31:08.702Z,47.43
2023-05-11T23:33:36.440Z,47.54
2023-05-11T23:36:05.442Z,47.51
2023-05-11T23:38:32.988Z,47.83
2023-05-11T23:41:00.602Z,48.11
2023-05-11T23:43:28.454Z,47.91
2023-05-11T23:45:57.007Z,47.92
2023-05-11T23:48:24.703Z,47.86
2023-05-11T23:50:52.233Z,48.12
2023-05-11T23:53:19.729Z,49.02
2023-05-11T23:55:47.961Z,49.08
2023-05-11T23:58:15.752Z,49.23
